sensor_id;sensor_type;location;lat;lon;timestamp;P1;durP1;ratioP1;P2;durP2;ratioP2
20454;SDS011;10386;54.314;10.022;2022-11-15T00:01:09;77.80;;;28.93;;
20454;SDS011;10386;54.314;10.022;2022-11-15T00:03:40;67.03;;;27.00;;
20454;SDS011;10386;54.314;10.022;2022-11-15T00:06:08;70.03;;;27.23;;
20454;SDS011;10386;54.314;10.022;2022-11-15T00:08:35;77.30;;;26.53;;
20454;SDS011;10386;54.314;10.022;2022-11-15T00:11:02;62.33;;;26.63;;
20454;SDS011;10386;54.314;10.022;2022-11-15T00:13:29;67.53;;;26.10;;
20454;SDS011;10386;54.314;10.022;2022-11-15T00:15:57;68.90;;;25.70;;
20454;SDS011;10386;54.314;10.022;2022-11-15T00:18:25;72.93;;;26.17;;
20454;SDS011;10386;54.314;10.022;2022-11-15T00:20:52;72.77;;;27.53;;
20454;SDS011;10386;54.314;10.022;2022-11-15T00:23:19;61.37;;;24.87;;
20454;SDS011;10386;54.314;10.022;2022-11-15T00:25:46;60.13;;;24.57;;
20454;SDS011;10386;54.314;10.022;2022-11-15T00:28:20;61.17;;;24.07;;
20454;SDS011;10386;54.314;10.022;2022-11-15T00:30:47;68.90;;;25.70;;
20454;SDS011;10386;54.314;10.022;2022-11-15T00:33:14;70.80;;;26.87;;
20454;SDS011;10386;54.314;10.022;2022-11-15T00:35:40;71.10;;;26.57;;
20454;SDS011;10386;54.314;10.022;2022-11-15T00:38:07;64.73;;;25.70;;
20454;SDS011;10386;54.314;10.022;2022-11-15T00:40:34;60.00;;;23.77;;
20454;SDS011;10386;54.314;10.022;2022-11-15T00:43:01;59.60;;;24.27;;
20454;SDS011;10386;54.314;10.022;2022-11-15T00:45:28;65.00;;;25.53;;
20454;SDS011;10386;54.314;10.022;2022-11-15T00:47:55;66.63;;;25.43;;
20454;SDS011;10386;54.314;10.022;2022-11-15T00:50:22;68.00;;;25.40;;
20454;SDS011;10386;54.314;10.022;2022-11-15T00:52:49;65.23;;;25.60;;
20454;SDS011;10386;54.314;10.022;2022-11-15T00:55:16;70.83;;;26.63;;
20454;SDS011;10386;54.314;10.022;2022-11-15T00:57:44;71.90;;;26.03;;
20454;SDS011;10386;54.314;10.022;2022-11-15T01:03:03;68.93;;;25.43;;
20454;SDS011;10386;54.314;10.022;2022-11-15T01:05:30;62.33;;;25.07;;
20454;SDS011;10386;54.314;10.022;2022-11-15T01:07:57;71.37;;;26.57;;
20454;SDS011;10386;54.314;10.022;2022-11-15T01:10:23;73.50;;;26.07;;
20454;SDS011;10386;54.314;10.022;2022-11-15T01:12:52;69.90;;;26.37;;
20454;SDS011;10386;54.314;10.022;2022-11-15T01:15:19;63.03;;;25.10;;
20454;SDS011;10386;54.314;10.022;2022-11-15T01:17:46;66.63;;;26.50;;
20454;SDS011;10386;54.314;10.022;2022-11-15T01:20:13;64.03;;;25.50;;
20454;SDS011;10386;54.314;10.022;2022-11-15T01:22:39;75.80;;;26.87;;
20454;SDS011;10386;54.314;10.022;2022-11-15T01:25:06;65.27;;;24.97;;
20454;SDS011;10386;54.314;10.022;2022-11-15T01:27:33;66.13;;;26.23;;
20454;SDS011;10386;54.314;10.022;2022-11-15T01:30:00;68.83;;;26.60;;
20454;SDS011;10386;54.314;10.022;2022-11-15T01:32:27;63.13;;;25.17;;
20454;SDS011;10386;54.314;10.022;2022-11-15T01:35:19;64.53;;;26.33;;
20454;SDS011;10386;54.314;10.022;2022-11-15T01:37:46;60.27;;;23.97;;
20454;SDS011;10386;54.314;10.022;2022-11-15T01:40:13;63.10;;;24.30;;
20454;SDS011;10386;54.314;10.022;2022-11-15T01:46:40;65.17;;;25.67;;
20454;SDS011;10386;54.314;10.022;2022-11-15T01:49:02;61.03;;;24.67;;
20454;SDS011;10386;54.314;10.022;2022-11-15T01:51:38;61.70;;;25.00;;
20454;SDS011;10386;54.314;10.022;2022-11-15T01:54:07;60.70;;;23.07;;
20454;SDS011;10386;54.314;10.022;2022-11-15T01:56:38;64.17;;;24.30;;
20454;SDS011;10386;54.314;10.022;2022-11-15T01:59:12;63.80;;;24.67;;
20454;SDS011;10386;54.314;10.022;2022-11-15T02:02:04;63.43;;;24.03;;
20454;SDS011;10386;54.314;10.022;2022-11-15T02:04:32;62.30;;;24.80;;
20454;SDS011;10386;54.314;10.022;2022-11-15T02:07:03;55.17;;;22.17;;
20454;SDS011;10386;54.314;10.022;2022-11-15T02:09:31;57.90;;;23.43;;
20454;SDS011;10386;54.314;10.022;2022-11-15T02:11:58;61.10;;;23.97;;
20454;SDS011;10386;54.314;10.022;2022-11-15T02:14:26;60.23;;;24.13;;
20454;SDS011;10386;54.314;10.022;2022-11-15T02:19:54;57.63;;;23.50;;
20454;SDS011;10386;54.314;10.022;2022-11-15T02:25:37;59.70;;;23.63;;
20454;SDS011;10386;54.314;10.022;2022-11-15T02:31:41;59.93;;;23.67;;
20454;SDS011;10386;54.314;10.022;2022-11-15T02:37:08;61.13;;;23.37;;
20454;SDS011;10386;54.314;10.022;2022-11-15T02:39:49;63.07;;;24.00;;
20454;SDS011;10386;54.314;10.022;2022-11-15T02:42:21;58.17;;;22.90;;
20454;SDS011;10386;54.314;10.022;2022-11-15T02:45:24;54.07;;;23.07;;
20454;SDS011;10386;54.314;10.022;2022-11-15T02:47:56;57.53;;;23.93;;
20454;SDS011;10386;54.314;10.022;2022-11-15T02:50:27;58.60;;;22.83;;
20454;SDS011;10386;54.314;10.022;2022-11-15T02:52:56;55.43;;;23.43;;
20454;SDS011;10386;54.314;10.022;2022-11-15T02:55:33;60.40;;;23.73;;
20454;SDS011;10386;54.314;10.022;2022-11-15T02:58:17;61.60;;;25.30;;
20454;SDS011;10386;54.314;10.022;2022-11-15T03:06:29;58.57;;;23.50;;
20454;SDS011;10386;54.314;10.022;2022-11-15T03:09:42;56.10;;;23.87;;
20454;SDS011;10386;54.314;10.022;2022-11-15T03:12:25;54.13;;;22.47;;
20454;SDS011;10386;54.314;10.022;2022-11-15T03:15:01;57.87;;;23.37;;
20454;SDS011;10386;54.314;10.022;2022-11-15T03:17:34;53.80;;;23.17;;
20454;SDS011;10386;54.314;10.022;2022-11-15T03:20:05;56.90;;;23.50;;
20454;SDS011;10386;54.314;10.022;2022-11-15T03:22:36;63.37;;;25.17;;
20454;SDS011;10386;54.314;10.022;2022-11-15T03:25:07;56.37;;;22.10;;
20454;SDS011;10386;54.314;10.022;2022-11-15T03:27:38;56.57;;;22.60;;
20454;SDS011;10386;54.314;10.022;2022-11-15T03:30:08;61.50;;;23.07;;
20454;SDS011;10386;54.314;10.022;2022-11-15T03:32:46;59.43;;;23.70;;
20454;SDS011;10386;54.314;10.022;2022-11-15T03:35:23;54.97;;;23.67;;
20454;SDS011;10386;54.314;10.022;2022-11-15T03:40:47;61.20;;;24.00;;
20454;SDS011;10386;54.314;10.022;2022-11-15T03:43:40;53.30;;;23.67;;
20454;SDS011;10386;54.314;10.022;2022-11-15T03:46:15;60.10;;;23.20;;
20454;SDS011;10386;54.314;10.022;2022-11-15T03:48:47;55.57;;;23.13;;
20454;SDS011;10386;54.314;10.022;2022-11-15T03:51:18;63.03;;;24.43;;
20454;SDS011;10386;54.314;10.022;2022-11-15T03:53:46;59.27;;;24.20;;
20454;SDS011;10386;54.314;10.022;2022-11-15T03:56:13;55.30;;;23.00;;
20454;SDS011;10386;54.314;10.022;2022-11-15T03:58:43;52.97;;;23.27;;
20454;SDS011;10386;54.314;10.022;2022-11-15T04:01:10;58.83;;;23.80;;
20454;SDS011;10386;54.314;10.022;2022-11-15T04:03:37;57.83;;;23.63;;
20454;SDS011;10386;54.314;10.022;2022-11-15T04:06:04;51.50;;;21.83;;
20454;SDS011;10386;54.314;10.022;2022-11-15T04:08:31;58.07;;;23.10;;
20454;SDS011;10386;54.314;10.022;2022-11-15T04:11:01;58.03;;;22.83;;
20454;SDS011;10386;54.314;10.022;2022-11-15T04:13:28;57.33;;;24.50;;
20454;SDS011;10386;54.314;10.022;2022-11-15T04:15:55;55.60;;;22.60;;
20454;SDS011;10386;54.314;10.022;2022-11-15T04:18:23;53.50;;;22.70;;
20454;SDS011;10386;54.314;10.022;2022-11-15T04:20:50;59.53;;;24.07;;
20454;SDS011;10386;54.314;10.022;2022-11-15T04:23:38;58.83;;;24.53;;
20454;SDS011;10386;54.314;10.022;2022-11-15T04:26:34;55.23;;;22.60;;
20454;SDS011;10386;54.314;10.022;2022-11-15T04:29:04;63.07;;;23.80;;
20454;SDS011;10386;54.314;10.022;2022-11-15T04:32:01;64.47;;;24.00;;
20454;SDS011;10386;54.314;10.022;2022-11-15T04:34:28;58.07;;;23.70;;
20454;SDS011;10386;54.314;10.022;2022-11-15T04:36:55;58.20;;;22.67;;
20454;SDS011;10386;54.314;10.022;2022-11-15T04:39:42;56.03;;;23.10;;
20454;SDS011;10386;54.314;10.022;2022-11-15T04:42:09;51.57;;;22.60;;
20454;SDS011;10386;54.314;10.022;2022-11-15T04:44:42;53.33;;;23.37;;
20454;SDS011;10386;54.314;10.022;2022-11-15T04:47:09;61.27;;;23.20;;
20454;SDS011;10386;54.314;10.022;2022-11-15T04:49:36;56.00;;;23.10;;
20454;SDS011;10386;54.314;10.022;2022-11-15T04:52:03;56.40;;;23.17;;
20454;SDS011;10386;54.314;10.022;2022-11-15T04:54:30;59.03;;;22.63;;
20454;SDS011;10386;54.314;10.022;2022-11-15T04:56:57;57.97;;;24.67;;
20454;SDS011;10386;54.314;10.022;2022-11-15T04:59:23;57.90;;;24.37;;
20454;SDS011;10386;54.314;10.022;2022-11-15T05:02:17;57.27;;;23.30;;
20454;SDS011;10386;54.314;10.022;2022-11-15T05:04:44;53.60;;;22.60;;
20454;SDS011;10386;54.314;10.022;2022-11-15T05:07:11;58.30;;;22.23;;
20454;SDS011;10386;54.314;10.022;2022-11-15T05:09:38;56.63;;;22.10;;
20454;SDS011;10386;54.314;10.022;2022-11-15T05:12:05;60.87;;;24.47;;
20454;SDS011;10386;54.314;10.022;2022-11-15T05:14:32;63.33;;;24.70;;
20454;SDS011;10386;54.314;10.022;2022-11-15T05:17:00;60.00;;;23.20;;
20454;SDS011;10386;54.314;10.022;2022-11-15T05:19:27;55.13;;;23.60;;
20454;SDS011;10386;54.314;10.022;2022-11-15T05:21:57;54.60;;;22.83;;
20454;SDS011;10386;54.314;10.022;2022-11-15T05:24:24;58.97;;;23.77;;
20454;SDS011;10386;54.314;10.022;2022-11-15T05:26:51;60.33;;;22.87;;
20454;SDS011;10386;54.314;10.022;2022-11-15T05:29:18;54.90;;;22.43;;
20454;SDS011;10386;54.314;10.022;2022-11-15T05:31:44;56.30;;;22.47;;
20454;SDS011;10386;54.314;10.022;2022-11-15T05:34:11;56.03;;;23.57;;
20454;SDS011;10386;54.314;10.022;2022-11-15T05:36:40;57.70;;;24.33;;
20454;SDS011;10386;54.314;10.022;2022-11-15T05:39:09;62.77;;;24.60;;
20454;SDS011;10386;54.314;10.022;2022-11-15T05:41:46;56.03;;;22.37;;
20454;SDS011;10386;54.314;10.022;2022-11-15T05:44:18;56.43;;;23.27;;
20454;SDS011;10386;54.314;10.022;2022-11-15T05:46:52;55.57;;;23.50;;
20454;SDS011;10386;54.314;10.022;2022-11-15T05:49:22;61.23;;;24.53;;
20454;SDS011;10386;54.314;10.022;2022-11-15T05:51:52;55.43;;;22.57;;
20454;SDS011;10386;54.314;10.022;2022-11-15T05:54:20;58.13;;;24.03;;
20454;SDS011;10386;54.314;10.022;2022-11-15T05:56:50;57.00;;;24.03;;
20454;SDS011;10386;54.314;10.022;2022-11-15T05:59:18;57.17;;;24.23;;
20454;SDS011;10386;54.314;10.022;2022-11-15T06:01:46;50.50;;;22.37;;
20454;SDS011;10386;54.314;10.022;2022-11-15T06:04:12;51.50;;;22.30;;
20454;SDS011;10386;54.314;10.022;2022-11-15T06:06:39;55.50;;;22.87;;
20454;SDS011;10386;54.314;10.022;2022-11-15T06:12:23;61.47;;;24.13;;
20454;SDS011;10386;54.314;10.022;2022-11-15T06:14:49;61.00;;;24.63;;
20454;SDS011;10386;54.314;10.022;2022-11-15T06:17:16;60.63;;;25.17;;
20454;SDS011;10386;54.314;10.022;2022-11-15T06:19:43;62.93;;;24.27;;
20454;SDS011;10386;54.314;10.022;2022-11-15T06:22:10;58.43;;;24.77;;
20454;SDS011;10386;54.314;10.022;2022-11-15T06:24:37;58.07;;;25.50;;
20454;SDS011;10386;54.314;10.022;2022-11-15T06:27:04;58.30;;;24.97;;
20454;SDS011;10386;54.314;10.022;2022-11-15T06:29:31;52.57;;;24.80;;
20454;SDS011;10386;54.314;10.022;2022-11-15T06:31:57;57.17;;;23.97;;
20454;SDS011;10386;54.314;10.022;2022-11-15T06:34:24;61.03;;;24.43;;
20454;SDS011;10386;54.314;10.022;2022-11-15T06:36:51;54.57;;;23.67;;
20454;SDS011;10386;54.314;10.022;2022-11-15T06:39:18;59.30;;;22.80;;
20454;SDS011;10386;54.314;10.022;2022-11-15T06:41:47;58.97;;;24.03;;
20454;SDS011;10386;54.314;10.022;2022-11-15T06:44:14;54.80;;;23.43;;
20454;SDS011;10386;54.314;10.022;2022-11-15T06:47:06;49.77;;;22.60;;
20454;SDS011;10386;54.314;10.022;2022-11-15T06:49:32;54.23;;;23.90;;
20454;SDS011;10386;54.314;10.022;2022-11-15T06:51:59;52.30;;;23.50;;
20454;SDS011;10386;54.314;10.022;2022-11-15T06:54:26;58.87;;;23.63;;
20454;SDS011;10386;54.314;10.022;2022-11-15T06:56:53;54.97;;;22.73;;
20454;SDS011;10386;54.314;10.022;2022-11-15T06:59:20;56.23;;;21.93;;
20454;SDS011;10386;54.314;10.022;2022-11-15T07:01:46;53.30;;;22.13;;
20454;SDS011;10386;54.314;10.022;2022-11-15T07:04:13;54.20;;;22.90;;
20454;SDS011;10386;54.314;10.022;2022-11-15T07:06:40;52.67;;;22.27;;
20454;SDS011;10386;54.314;10.022;2022-11-15T07:09:07;53.73;;;21.87;;
20454;SDS011;10386;54.314;10.022;2022-11-15T07:11:34;51.37;;;21.17;;
20454;SDS011;10386;54.314;10.022;2022-11-15T07:14:01;55.97;;;21.80;;
20454;SDS011;10386;54.314;10.022;2022-11-15T07:16:28;53.43;;;22.20;;
20454;SDS011;10386;54.314;10.022;2022-11-15T07:18:55;50.23;;;20.87;;
20454;SDS011;10386;54.314;10.022;2022-11-15T07:21:22;48.97;;;21.17;;
20454;SDS011;10386;54.314;10.022;2022-11-15T07:23:53;49.27;;;21.03;;
20454;SDS011;10386;54.314;10.022;2022-11-15T07:26:19;47.47;;;20.90;;
20454;SDS011;10386;54.314;10.022;2022-11-15T07:28:46;47.77;;;19.97;;
20454;SDS011;10386;54.314;10.022;2022-11-15T07:34:09;51.13;;;21.70;;
20454;SDS011;10386;54.314;10.022;2022-11-15T07:37:02;48.10;;;20.30;;
20454;SDS011;10386;54.314;10.022;2022-11-15T07:39:28;50.40;;;21.67;;
20454;SDS011;10386;54.314;10.022;2022-11-15T07:41:55;46.47;;;20.00;;
20454;SDS011;10386;54.314;10.022;2022-11-15T07:45:06;57.40;;;21.87;;
20454;SDS011;10386;54.314;10.022;2022-11-15T07:47:33;45.67;;;21.00;;
20454;SDS011;10386;54.314;10.022;2022-11-15T07:50:00;51.07;;;22.67;;
20454;SDS011;10386;54.314;10.022;2022-11-15T07:52:27;51.80;;;23.13;;
20454;SDS011;10386;54.314;10.022;2022-11-15T07:54:54;55.50;;;23.53;;
20454;SDS011;10386;54.314;10.022;2022-11-15T07:57:21;62.40;;;25.83;;
20454;SDS011;10386;54.314;10.022;2022-11-15T07:59:48;55.47;;;24.27;;
20454;SDS011;10386;54.314;10.022;2022-11-15T08:02:14;53.33;;;23.97;;
20454;SDS011;10386;54.314;10.022;2022-11-15T08:04:44;70.97;;;30.13;;
20454;SDS011;10386;54.314;10.022;2022-11-15T08:07:12;76.47;;;33.60;;
20454;SDS011;10386;54.314;10.022;2022-11-15T08:09:39;61.60;;;26.50;;
20454;SDS011;10386;54.314;10.022;2022-11-15T08:12:06;44.03;;;19.60;;
20454;SDS011;10386;54.314;10.022;2022-11-15T08:14:33;52.17;;;21.93;;
20454;SDS011;10386;54.314;10.022;2022-11-15T08:17:06;46.03;;;21.33;;
20454;SDS011;10386;54.314;10.022;2022-11-15T08:19:32;50.60;;;21.30;;
20454;SDS011;10386;54.314;10.022;2022-11-15T08:21:59;45.00;;;20.00;;
20454;SDS011;10386;54.314;10.022;2022-11-15T08:24:28;43.33;;;20.27;;
20454;SDS011;10386;54.314;10.022;2022-11-15T08:26:55;50.03;;;20.60;;
20454;SDS011;10386;54.314;10.022;2022-11-15T08:29:24;45.83;;;20.53;;
20454;SDS011;10386;54.314;10.022;2022-11-15T08:31:54;49.03;;;21.67;;
20454;SDS011;10386;54.314;10.022;2022-11-15T08:34:22;52.33;;;22.47;;
20454;SDS011;10386;54.314;10.022;2022-11-15T08:36:51;47.07;;;21.03;;
20454;SDS011;10386;54.314;10.022;2022-11-15T08:39:18;51.43;;;23.17;;
20454;SDS011;10386;54.314;10.022;2022-11-15T08:41:45;51.83;;;20.83;;
20454;SDS011;10386;54.314;10.022;2022-11-15T08:44:12;49.83;;;20.70;;
20454;SDS011;10386;54.314;10.022;2022-11-15T08:46:39;42.90;;;20.17;;
20454;SDS011;10386;54.314;10.022;2022-11-15T08:49:06;45.37;;;19.77;;
20454;SDS011;10386;54.314;10.022;2022-11-15T08:51:32;43.30;;;20.03;;
20454;SDS011;10386;54.314;10.022;2022-11-15T08:53:59;46.47;;;20.03;;
20454;SDS011;10386;54.314;10.022;2022-11-15T08:56:26;46.17;;;20.33;;
20454;SDS011;10386;54.314;10.022;2022-11-15T08:58:53;39.83;;;18.73;;
20454;SDS011;10386;54.314;10.022;2022-11-15T09:01:21;43.27;;;19.63;;
20454;SDS011;10386;54.314;10.022;2022-11-15T09:03:48;41.20;;;17.93;;
20454;SDS011;10386;54.314;10.022;2022-11-15T09:06:15;37.17;;;18.57;;
20454;SDS011;10386;54.314;10.022;2022-11-15T09:08:42;40.67;;;19.10;;
20454;SDS011;10386;54.314;10.022;2022-11-15T09:11:15;37.23;;;16.67;;
20454;SDS011;10386;54.314;10.022;2022-11-15T09:13:44;39.33;;;18.10;;
20454;SDS011;10386;54.314;10.022;2022-11-15T09:16:11;37.77;;;17.43;;
20454;SDS011;10386;54.314;10.022;2022-11-15T09:18:39;34.90;;;17.20;;
20454;SDS011;10386;54.314;10.022;2022-11-15T09:21:06;40.27;;;17.80;;
20454;SDS011;10386;54.314;10.022;2022-11-15T09:23:33;43.00;;;18.27;;
20454;SDS011;10386;54.314;10.022;2022-11-15T09:26:00;42.70;;;17.47;;
20454;SDS011;10386;54.314;10.022;2022-11-15T09:28:29;36.37;;;17.33;;
20454;SDS011;10386;54.314;10.022;2022-11-15T09:30:57;38.07;;;16.70;;
20454;SDS011;10386;54.314;10.022;2022-11-15T09:33:26;35.80;;;17.20;;
20454;SDS011;10386;54.314;10.022;2022-11-15T09:35:53;38.30;;;17.30;;
20454;SDS011;10386;54.314;10.022;2022-11-15T09:38:21;41.83;;;17.97;;
20454;SDS011;10386;54.314;10.022;2022-11-15T09:40:52;37.40;;;17.37;;
20454;SDS011;10386;54.314;10.022;2022-11-15T09:46:37;36.07;;;16.73;;
20454;SDS011;10386;54.314;10.022;2022-11-15T09:49:21;33.13;;;16.83;;
20454;SDS011;10386;54.314;10.022;2022-11-15T09:51:51;37.37;;;17.07;;
20454;SDS011;10386;54.314;10.022;2022-11-15T09:54:28;36.23;;;16.70;;
20454;SDS011;10386;54.314;10.022;2022-11-15T09:57:31;39.93;;;17.23;;
20454;SDS011;10386;54.314;10.022;2022-11-15T10:00:50;36.97;;;17.60;;
20454;SDS011;10386;54.314;10.022;2022-11-15T10:03:21;35.80;;;17.00;;
20454;SDS011;10386;54.314;10.022;2022-11-15T10:05:53;31.17;;;15.30;;
20454;SDS011;10386;54.314;10.022;2022-11-15T10:11:18;37.93;;;17.17;;
20454;SDS011;10386;54.314;10.022;2022-11-15T10:14:21;32.77;;;16.80;;
20454;SDS011;10386;54.314;10.022;2022-11-15T10:22:28;33.83;;;17.07;;
20454;SDS011;10386;54.314;10.022;2022-11-15T10:30:38;33.70;;;16.90;;
20454;SDS011;10386;54.314;10.022;2022-11-15T10:39:00;28.50;;;15.30;;
20454;SDS011;10386;54.314;10.022;2022-11-15T10:46:37;34.17;;;16.53;;
20454;SDS011;10386;54.314;10.022;2022-11-15T10:49:13;31.83;;;16.23;;
20454;SDS011;10386;54.314;10.022;2022-11-15T10:51:53;30.00;;;15.47;;
20454;SDS011;10386;54.314;10.022;2022-11-15T10:54:33;32.73;;;16.27;;
20454;SDS011;10386;54.314;10.022;2022-11-15T10:57:04;31.50;;;14.87;;
20454;SDS011;10386;54.314;10.022;2022-11-15T10:59:35;35.20;;;15.03;;
20454;SDS011;10386;54.314;10.022;2022-11-15T11:04:50;31.77;;;16.63;;
20454;SDS011;10386;54.314;10.022;2022-11-15T11:07:43;33.97;;;16.40;;
20454;SDS011;10386;54.314;10.022;2022-11-15T11:10:25;32.57;;;16.80;;
20454;SDS011;10386;54.314;10.022;2022-11-15T11:13:34;29.37;;;15.30;;
20454;SDS011;10386;54.314;10.022;2022-11-15T11:18:34;31.13;;;14.93;;
20454;SDS011;10386;54.314;10.022;2022-11-15T11:21:08;30.00;;;16.07;;
20454;SDS011;10386;54.314;10.022;2022-11-15T11:23:42;30.00;;;15.07;;
20454;SDS011;10386;54.314;10.022;2022-11-15T11:26:34;28.83;;;15.30;;
20454;SDS011;10386;54.314;10.022;2022-11-15T11:29:26;27.03;;;15.13;;
20454;SDS011;10386;54.314;10.022;2022-11-15T11:34:54;31.07;;;15.43;;
20454;SDS011;10386;54.314;10.022;2022-11-15T11:37:52;28.57;;;15.53;;
20454;SDS011;10386;54.314;10.022;2022-11-15T11:48:49;29.07;;;14.23;;
20454;SDS011;10386;54.314;10.022;2022-11-15T11:51:42;29.43;;;15.53;;
20454;SDS011;10386;54.314;10.022;2022-11-15T11:57:03;38.67;;;16.20;;
20454;SDS011;10386;54.314;10.022;2022-11-15T12:02:16;31.47;;;14.83;;
20454;SDS011;10386;54.314;10.022;2022-11-15T12:05:44;29.10;;;14.23;;
20454;SDS011;10386;54.314;10.022;2022-11-15T12:07:44;26.80;;;13.73;;
20454;SDS011;10386;54.314;10.022;2022-11-15T12:10:23;28.03;;;14.30;;
20454;SDS011;10386;54.314;10.022;2022-11-15T12:15:45;28.07;;;13.77;;
20454;SDS011;10386;54.314;10.022;2022-11-15T12:18:47;31.47;;;14.97;;
20454;SDS011;10386;54.314;10.022;2022-11-15T12:21:24;30.20;;;14.37;;
20454;SDS011;10386;54.314;10.022;2022-11-15T12:23:55;28.20;;;14.47;;
20454;SDS011;10386;54.314;10.022;2022-11-15T12:26:41;31.40;;;14.13;;
20454;SDS011;10386;54.314;10.022;2022-11-15T12:29:16;24.80;;;14.00;;
20454;SDS011;10386;54.314;10.022;2022-11-15T12:31:51;26.57;;;13.87;;
20454;SDS011;10386;54.314;10.022;2022-11-15T12:36:50;26.80;;;13.47;;
20454;SDS011;10386;54.314;10.022;2022-11-15T12:39:17;27.23;;;13.07;;
20454;SDS011;10386;54.314;10.022;2022-11-15T12:52:07;29.10;;;13.53;;
20454;SDS011;10386;54.314;10.022;2022-11-15T13:08:06;24.63;;;12.27;;
20454;SDS011;10386;54.314;10.022;2022-11-15T13:10:33;25.03;;;12.30;;
20454;SDS011;10386;54.314;10.022;2022-11-15T13:13:06;22.63;;;12.57;;
20454;SDS011;10386;54.314;10.022;2022-11-15T13:15:40;26.53;;;13.40;;
20454;SDS011;10386;54.314;10.022;2022-11-15T13:21:23;27.60;;;14.17;;
20454;SDS011;10386;54.314;10.022;2022-11-15T13:24:13;28.93;;;14.60;;
20454;SDS011;10386;54.314;10.022;2022-11-15T13:26:48;25.50;;;13.93;;
20454;SDS011;10386;54.314;10.022;2022-11-15T13:29:16;24.03;;;12.87;;
20454;SDS011;10386;54.314;10.022;2022-11-15T13:31:44;25.10;;;13.03;;
20454;SDS011;10386;54.314;10.022;2022-11-15T13:34:17;25.50;;;13.40;;
20454;SDS011;10386;54.314;10.022;2022-11-15T13:39:47;23.03;;;12.50;;
20454;SDS011;10386;54.314;10.022;2022-11-15T13:42:16;26.97;;;12.43;;
20454;SDS011;10386;54.314;10.022;2022-11-15T13:47:42;29.00;;;13.60;;
20454;SDS011;10386;54.314;10.022;2022-11-15T13:50:13;22.60;;;12.83;;
20454;SDS011;10386;54.314;10.022;2022-11-15T13:52:40;27.03;;;12.30;;
20454;SDS011;10386;54.314;10.022;2022-11-15T13:57:48;24.83;;;12.90;;
20454;SDS011;10386;54.314;10.022;2022-11-15T14:03:20;23.20;;;12.83;;
20454;SDS011;10386;54.314;10.022;2022-11-15T14:08:57;24.73;;;13.17;;
20454;SDS011;10386;54.314;10.022;2022-11-15T14:11:24;24.37;;;12.67;;
20454;SDS011;10386;54.314;10.022;2022-11-15T14:16:40;26.83;;;12.67;;
20454;SDS011;10386;54.314;10.022;2022-11-15T14:19:34;31.93;;;13.10;;
20454;SDS011;10386;54.314;10.022;2022-11-15T14:31:04;24.40;;;12.03;;
20454;SDS011;10386;54.314;10.022;2022-11-15T14:33:44;27.93;;;11.63;;
20454;SDS011;10386;54.314;10.022;2022-11-15T14:36:16;26.57;;;13.80;;
20454;SDS011;10386;54.314;10.022;2022-11-15T14:38:45;28.83;;;14.10;;
20454;SDS011;10386;54.314;10.022;2022-11-15T14:41:25;28.77;;;13.33;;
20454;SDS011;10386;54.314;10.022;2022-11-15T14:44:03;25.37;;;12.93;;
20454;SDS011;10386;54.314;10.022;2022-11-15T14:46:31;25.40;;;13.10;;
20454;SDS011;10386;54.314;10.022;2022-11-15T14:48:59;21.90;;;12.20;;
20454;SDS011;10386;54.314;10.022;2022-11-15T14:51:29;23.37;;;12.47;;
20454;SDS011;10386;54.314;10.022;2022-11-15T14:53:56;23.93;;;12.30;;
20454;SDS011;10386;54.314;10.022;2022-11-15T14:56:23;22.27;;;11.90;;
20454;SDS011;10386;54.314;10.022;2022-11-15T15:01:42;23.73;;;11.80;;
20454;SDS011;10386;54.314;10.022;2022-11-15T15:04:10;21.27;;;11.97;;
20454;SDS011;10386;54.314;10.022;2022-11-15T15:06:37;26.23;;;11.03;;
20454;SDS011;10386;54.314;10.022;2022-11-15T15:12:42;21.97;;;12.17;;
20454;SDS011;10386;54.314;10.022;2022-11-15T15:15:21;23.93;;;11.70;;
20454;SDS011;10386;54.314;10.022;2022-11-15T15:17:54;23.97;;;12.90;;
20454;SDS011;10386;54.314;10.022;2022-11-15T15:20:21;22.43;;;12.50;;
20454;SDS011;10386;54.314;10.022;2022-11-15T15:22:48;24.70;;;12.13;;
20454;SDS011;10386;54.314;10.022;2022-11-15T15:25:31;28.17;;;13.33;;
20454;SDS011;10386;54.314;10.022;2022-11-15T15:28:01;23.00;;;12.17;;
20454;SDS011;10386;54.314;10.022;2022-11-15T15:30:29;27.47;;;12.80;;
20454;SDS011;10386;54.314;10.022;2022-11-15T15:32:56;26.53;;;14.23;;
20454;SDS011;10386;54.314;10.022;2022-11-15T15:35:24;43.37;;;19.67;;
20454;SDS011;10386;54.314;10.022;2022-11-15T15:37:56;39.43;;;18.40;;
20454;SDS011;10386;54.314;10.022;2022-11-15T15:40:27;41.40;;;19.83;;
20454;SDS011;10386;54.314;10.022;2022-11-15T15:42:55;25.00;;;13.47;;
20454;SDS011;10386;54.314;10.022;2022-11-15T15:45:22;24.80;;;13.43;;
20454;SDS011;10386;54.314;10.022;2022-11-15T15:47:49;21.77;;;12.53;;
20454;SDS011;10386;54.314;10.022;2022-11-15T15:50:42;23.10;;;13.10;;
20454;SDS011;10386;54.314;10.022;2022-11-15T15:53:10;28.67;;;12.97;;
20454;SDS011;10386;54.314;10.022;2022-11-15T15:56:04;23.97;;;13.03;;
20454;SDS011;10386;54.314;10.022;2022-11-15T15:58:34;24.60;;;13.80;;
20454;SDS011;10386;54.314;10.022;2022-11-15T16:01:01;37.67;;;17.63;;
20454;SDS011;10386;54.314;10.022;2022-11-15T16:03:28;33.07;;;17.67;;
20454;SDS011;10386;54.314;10.022;2022-11-15T16:05:58;29.53;;;16.70;;
20454;SDS011;10386;54.314;10.022;2022-11-15T16:08:25;28.10;;;15.47;;
20454;SDS011;10386;54.314;10.022;2022-11-15T16:11:13;27.53;;;13.23;;
20454;SDS011;10386;54.314;10.022;2022-11-15T16:13:41;26.97;;;14.23;;
20454;SDS011;10386;54.314;10.022;2022-11-15T16:16:08;29.20;;;13.17;;
20454;SDS011;10386;54.314;10.022;2022-11-15T16:18:41;27.03;;;13.27;;
20454;SDS011;10386;54.314;10.022;2022-11-15T16:21:09;23.07;;;13.10;;
20454;SDS011;10386;54.314;10.022;2022-11-15T16:23:36;26.63;;;14.00;;
20454;SDS011;10386;54.314;10.022;2022-11-15T16:26:14;29.87;;;15.37;;
20454;SDS011;10386;54.314;10.022;2022-11-15T16:28:48;28.97;;;15.30;;
20454;SDS011;10386;54.314;10.022;2022-11-15T16:31:16;29.60;;;16.47;;
20454;SDS011;10386;54.314;10.022;2022-11-15T16:33:45;27.77;;;15.67;;
20454;SDS011;10386;54.314;10.022;2022-11-15T16:36:21;34.80;;;18.07;;
20454;SDS011;10386;54.314;10.022;2022-11-15T16:38:58;30.73;;;17.80;;
20454;SDS011;10386;54.314;10.022;2022-11-15T16:41:26;35.00;;;19.33;;
20454;SDS011;10386;54.314;10.022;2022-11-15T16:43:55;36.37;;;18.93;;
20454;SDS011;10386;54.314;10.022;2022-11-15T16:46:26;39.00;;;20.33;;
20454;SDS011;10386;54.314;10.022;2022-11-15T16:49:00;32.90;;;18.53;;
20454;SDS011;10386;54.314;10.022;2022-11-15T16:51:26;35.60;;;18.37;;
20454;SDS011;10386;54.314;10.022;2022-11-15T16:53:53;35.73;;;19.07;;
20454;SDS011;10386;54.314;10.022;2022-11-15T16:56:26;31.10;;;17.43;;
20454;SDS011;10386;54.314;10.022;2022-11-15T16:58:57;37.90;;;19.63;;
20454;SDS011;10386;54.314;10.022;2022-11-15T17:01:50;38.53;;;18.10;;
20454;SDS011;10386;54.314;10.022;2022-11-15T17:07:10;35.93;;;17.87;;